Aullville, Missouri
Current Conditions -  °F | °C
As of 10:55 AM on Saturday 25 Oct 2014 (Local Time) from KRCM Reporting Station
Moderate Fog Moderate Fog  
Wind Chill: 16°   Ceiling: 100
Heat Index: 16°   Visibility: 0.25mi
Dew Point: 15°   Wind: 0mph
Humidity: 94%   Direction: NA
Pressure: 30.09"   Gusts: NA
Location:  39.0541°N, 93.6618°W
Report Text: KRCM 251555Z AUTO 00000KT 1/4SM FG OVC001 16/15 A3009 RMK AO2
Loading
Personal Weather Stations






























Interactive Weather Map
Tropical Storm Tracking
New forecast layout! Learn more

10-Day Weather Forecast

Advertisements
Track Severe Weather on mobile